createdAt,value
2023-04-15T00:00:13.762Z,100826.84
2023-04-15T00:03:19.301Z,100819.88
2023-04-15T00:06:24.813Z,100820.72
2023-04-15T00:09:29.661Z,100818.81
2023-04-15T00:12:34.058Z,100812.72
2023-04-15T00:15:38.337Z,100817.81
2023-04-15T00:18:42.888Z,100821.50
2023-04-15T00:21:47.309Z,100827.50
2023-04-15T00:24:54.161Z,100820.50
2023-04-15T00:27:58.307Z,100819.78
2023-04-15T00:31:03.093Z,100817.03
2023-04-15T00:34:08.238Z,100814.44
2023-04-15T00:37:12.777Z,100819.53
2023-04-15T00:40:19.748Z,100801.25
2023-04-15T00:43:24.350Z,100806.53
2023-04-15T00:46:31.061Z,100799.63
2023-04-15T00:49:35.338Z,100797.84
2023-04-15T00:52:40.680Z,100794.22
2023-04-15T00:55:45.588Z,100796.06
2023-04-15T00:58:51.404Z,100800.44
2023-04-15T01:01:56.483Z,100797.03
2023-04-15T01:05:01.368Z,100796.28
2023-04-15T01:08:06.295Z,100797.03
2023-04-15T01:11:12.603Z,100798.00
2023-04-15T01:14:16.653Z,100793.63
2023-04-15T01:17:21.503Z,100792.78
2023-04-15T01:20:26.194Z,100797.97
2023-04-15T01:23:31.330Z,100793.69
2023-04-15T01:26:37.890Z,100800.69
2023-04-15T01:29:43.122Z,100797.16
2023-04-15T01:32:47.482Z,100788.28
2023-04-15T01:35:51.634Z,100796.97
2023-04-15T01:38:57.327Z,100787.56
2023-04-15T01:42:01.806Z,100784.16
2023-04-15T01:45:07.180Z,100798.97
2023-04-15T01:48:12.338Z,100785.91
2023-04-15T01:51:17.220Z,100788.50
2023-04-15T01:54:21.837Z,100792.84
2023-04-15T01:57:26.387Z,100799.78
2023-04-15T02:00:32.561Z,100801.41
2023-04-15T02:03:38.913Z,100797.03
2023-04-15T02:06:43.972Z,100802.25
2023-04-15T02:09:48.180Z,100799.69
2023-04-15T02:12:52.439Z,100798.00
2023-04-15T02:15:57.073Z,100798.13
2023-04-15T02:19:02.178Z,100794.63
2023-04-15T02:22:07.728Z,100787.63
2023-04-15T02:25:12.166Z,100788.63
2023-04-15T02:28:16.540Z,100796.28
2023-04-15T02:31:21.714Z,100790.94
2023-04-15T02:34:27.318Z,100804.94
2023-04-15T02:37:32.542Z,100798.84
2023-04-15T02:40:37.351Z,100791.06
2023-04-15T02:43:41.859Z,100795.56
2023-04-15T02:46:52.448Z,100795.47
2023-04-15T02:49:58.591Z,100790.22
2023-04-15T02:53:03.179Z,100790.09
2023-04-15T02:56:08.390Z,100800.56
2023-04-15T02:59:13.338Z,100801.53
2023-04-15T03:02:17.777Z,100794.66
2023-04-15T03:05:25.727Z,100798.75
2023-04-15T03:08:30.045Z,100798.75
2023-04-15T03:11:36.853Z,100801.34
2023-04-15T03:14:41.137Z,100797.84
2023-04-15T03:17:45.541Z,100803.06
2023-04-15T03:20:49.381Z,100799.47
2023-04-15T03:23:53.789Z,100796.00
2023-04-15T03:26:58.324Z,100792.38
2023-04-15T03:30:03.261Z,100794.19
2023-04-15T03:33:08.579Z,100796.78
2023-04-15T03:36:12.647Z,100798.50
2023-04-15T03:39:17.213Z,100801.34
2023-04-15T03:42:21.812Z,100798.63
2023-04-15T03:45:26.299Z,100802.94
2023-04-15T03:48:31.073Z,100802.06
2023-04-15T03:51:35.765Z,100805.44
2023-04-15T03:54:40.248Z,100810.69
2023-04-15T03:57:44.275Z,100810.78
2023-04-15T04:00:48.772Z,100807.13
2023-04-15T04:03:53.423Z,100809.63
2023-04-15T04:06:57.914Z,100813.03
2023-04-15T04:10:03.745Z,100807.84
2023-04-15T04:13:08.114Z,100808.72
2023-04-15T04:16:12.550Z,100807.78
2023-04-15T04:19:19.570Z,100805.31
2023-04-15T04:22:24.745Z,100804.34
2023-04-15T04:25:29.148Z,100806.91
2023-04-15T04:28:35.190Z,100808.72
2023-04-15T04:31:39.569Z,100806.97
2023-04-15T04:34:43.637Z,100810.41
2023-04-15T04:37:48.113Z,100814.56
2023-04-15T04:40:52.613Z,100809.22
2023-04-15T04:43:56.786Z,100817.19
2023-04-15T04:47:01.246Z,100816.25
2023-04-15T04:50:06.852Z,100815.34
2023-04-15T04:53:11.072Z,100817.00
2023-04-15T04:56:15.558Z,100828.38
2023-04-15T04:59:19.929Z,100828.38
2023-04-15T05:02:27.095Z,100829.22
2023-04-15T05:05:31.968Z,100827.59
2023-04-15T05:08:36.704Z,100835.09
2023-04-15T05:11:41.934Z,100830.81
2023-04-15T05:14:46.859Z,100830.69
2023-04-15T05:17:51.659Z,100838.31
2023-04-15T05:20:56.121Z,100846.81
2023-04-15T05:23:59.982Z,100843.38
2023-04-15T05:27:04.771Z,100850.34
2023-04-15T05:30:10.272Z,100847.66
2023-04-15T05:33:16.463Z,100846.88
2023-04-15T05:36:21.188Z,100845.03
2023-04-15T05:39:26.588Z,100845.94
2023-04-15T05:42:30.968Z,100844.13
2023-04-15T05:45:35.197Z,100848.38
2023-04-15T05:48:39.510Z,100843.88
2023-04-15T05:51:43.676Z,100842.06
2023-04-15T05:54:47.892Z,100834.94
2023-04-15T05:57:52.265Z,100835.13
2023-04-15T06:00:56.856Z,100837.56
2023-04-15T06:04:01.948Z,100835.13
2023-04-15T06:07:06.845Z,100851.53
2023-04-15T06:10:11.778Z,100857.66
2023-04-15T06:13:17.062Z,100867.88
2023-04-15T06:16:21.940Z,100870.38
2023-04-15T06:19:26.937Z,100879.81
2023-04-15T06:22:31.659Z,100877.19
2023-04-15T06:25:36.108Z,100889.34
2023-04-15T06:28:40.734Z,100881.38
2023-04-15T06:31:45.152Z,100881.38
2023-04-15T06:34:49.374Z,100877.97
2023-04-15T06:37:53.616Z,100880.66
2023-04-15T06:40:57.989Z,100885.72
2023-04-15T06:44:02.776Z,100885.59
2023-04-15T06:47:07.021Z,100891.72
2023-04-15T06:50:11.590Z,100883.09
2023-04-15T06:53:16.137Z,100877.75
2023-04-15T06:56:20.525Z,100883.75
2023-04-15T06:59:25.204Z,100873.28
2023-04-15T07:02:29.780Z,100880.13
2023-04-15T07:05:34.145Z,100890.25
2023-04-15T07:08:39.135Z,100889.16
2023-04-15T07:11:43.580Z,100888.09
2023-04-15T07:14:47.863Z,100897.47
2023-04-15T07:17:52.527Z,100887.97
2023-04-15T07:20:56.760Z,100891.00
2023-04-15T07:24:01.327Z,100896.09
2023-04-15T07:27:05.711Z,100906.59
2023-04-15T07:30:11.350Z,100900.38
2023-04-15T07:33:15.836Z,100917.84
2023-04-15T07:36:20.771Z,100921.28
2023-04-15T07:39:24.933Z,100931.63
2023-04-15T07:42:29.369Z,100934.31
2023-04-15T07:45:33.478Z,100930.16
2023-04-15T07:48:37.872Z,100931.16
2023-04-15T07:51:42.302Z,100926.78
2023-04-15T07:54:46.268Z,100935.28
2023-04-15T07:57:51.110Z,100940.41
2023-04-15T08:00:55.515Z,100938.63
2023-04-15T08:04:00.516Z,100940.91
2023-04-15T08:07:06.070Z,100941.56
2023-04-15T08:10:11.208Z,100944.06
2023-04-15T08:13:16.075Z,100943.09
2023-04-15T08:16:22.869Z,100941.31
2023-04-15T08:19:27.194Z,100942.38
2023-04-15T08:22:31.528Z,100946.69
2023-04-15T08:25:36.177Z,100950.91
2023-04-15T08:28:42.449Z,100947.47
2023-04-15T08:31:47.787Z,100953.53
2023-04-15T08:34:54.508Z,100952.78
2023-04-15T08:37:58.764Z,100958.88
2023-04-15T08:41:25.543Z,100956.13
2023-04-15T08:44:33.363Z,100957.88
2023-04-15T08:47:41.796Z,100963.06
2023-04-15T08:50:47.918Z,100968.44
2023-04-15T08:53:52.937Z,100964.13
2023-04-15T08:56:58.701Z,100970.34
2023-04-15T09:00:05.722Z,100966.22
2023-04-15T09:03:11.112Z,100971.34
2023-04-15T09:06:18.094Z,100979.13
2023-04-15T09:09:22.723Z,100979.72
2023-04-15T09:12:27.307Z,100985.81
2023-04-15T09:15:33.016Z,100988.50
2023-04-15T09:18:39.130Z,100996.88
2023-04-15T09:21:47.134Z,100995.03
2023-04-15T09:24:51.656Z,101000.16
2023-04-15T09:28:01.104Z,101005.94
2023-04-15T09:31:05.633Z,101003.06
2023-04-15T09:34:10.765Z,101002.59
2023-04-15T09:37:31.618Z,101005.69
2023-04-15T09:40:39.751Z,101007.03
2023-04-15T09:43:43.870Z,101010.31
2023-04-15T09:46:47.908Z,101004.84
2023-04-15T09:50:00.310Z,101008.63
2023-04-15T09:53:04.784Z,101005.19
2023-04-15T09:56:10.440Z,101014.16
2023-04-15T09:59:14.723Z,101011.31
2023-04-15T10:02:22.900Z,101009.47
2023-04-15T10:05:29.753Z,101008.28
2023-04-15T10:08:35.353Z,101013.28
2023-04-15T10:11:40.536Z,101019.09
2023-04-15T10:14:49.288Z,101016.41
2023-04-15T10:17:54.928Z,101017.75
2023-04-15T10:21:01.964Z,101021.94
2023-04-15T10:24:07.115Z,101013.00
2023-04-15T10:27:11.730Z,101017.41
2023-04-15T10:30:17.537Z,101020.91
2023-04-15T10:33:24.530Z,101011.25
2023-04-15T10:36:28.586Z,101007.91
2023-04-15T10:39:40.205Z,101014.44
2023-04-15T10:42:44.443Z,101014.16
2023-04-15T10:45:48.754Z,101016.06
2023-04-15T10:48:54.080Z,101015.81
2023-04-15T10:51:59.762Z,101003.88
2023-04-15T10:55:24.985Z,100999.66
2023-04-15T10:58:43.086Z,100997.34
2023-04-15T11:01:56.700Z,100980.91
2023-04-15T11:05:01.851Z,100989.19
2023-04-15T11:08:06.682Z,100978.09
2023-04-15T11:11:11.323Z,100965.19
2023-04-15T11:14:16.419Z,100976.84
2023-04-15T11:17:31.389Z,100970.81
2023-04-15T11:20:41.461Z,100960.88
2023-04-15T11:23:49.273Z,100968.94
2023-04-15T11:27:02.318Z,100972.75
2023-04-15T11:30:27.396Z,100986.44
2023-04-15T11:33:31.476Z,100978.44
2023-04-15T11:36:36.872Z,100968.63
2023-04-15T11:39:42.252Z,100953.91
2023-04-15T11:43:11.433Z,100946.22
2023-04-15T11:46:15.960Z,100958.41
2023-04-15T11:49:31.323Z,100953.47
2023-04-15T11:52:35.507Z,100956.28
2023-04-15T11:55:45.114Z,100949.56
2023-04-15T11:58:54.164Z,100933.38
2023-04-15T12:01:58.841Z,100944.03
2023-04-15T12:05:05.487Z,100940.66
2023-04-15T12:08:09.368Z,100941.19
2023-04-15T12:11:14.541Z,100953.47
2023-04-15T12:14:24.738Z,100961.94
2023-04-15T12:17:29.303Z,100939.63
2023-04-15T12:20:54.556Z,100954.19
2023-04-15T12:24:04.886Z,100956.34
2023-04-15T12:27:12.170Z,100962.31
2023-04-15T12:30:16.314Z,100973.81
2023-04-15T12:33:20.267Z,100972.38
2023-04-15T12:36:25.158Z,100979.34
2023-04-15T12:39:34.846Z,100992.63
2023-04-15T12:42:39.215Z,101003.81
2023-04-15T12:45:44.053Z,101006.63
2023-04-15T12:48:48.349Z,100997.69
2023-04-15T12:52:02.782Z,100998.69
2023-04-15T12:55:07.719Z,100996.19
2023-04-15T12:58:12.172Z,100987.47
2023-04-15T13:01:16.564Z,100985.56
2023-04-15T13:04:21.345Z,100986.09
2023-04-15T13:07:26.052Z,100992.50
2023-04-15T13:10:31.589Z,101002.56
2023-04-15T13:13:35.891Z,101007.91
2023-04-15T13:16:40.902Z,101022.28
2023-04-15T13:19:45.490Z,101027.09
2023-04-15T13:22:49.998Z,101036.75
2023-04-15T13:25:54.291Z,101040.25
2023-04-15T13:28:58.783Z,101038.41
2023-04-15T13:32:03.442Z,101041.34
2023-04-15T13:35:08.640Z,101047.75
2023-04-15T13:38:12.796Z,101045.22
2023-04-15T13:41:17.403Z,101044.81
2023-04-15T13:44:22.195Z,101049.75
2023-04-15T13:47:26.905Z,101063.59
2023-04-15T13:50:31.077Z,101059.31
2023-04-15T13:53:39.021Z,101075.13
2023-04-15T13:56:43.841Z,101066.59
2023-04-15T13:59:48.511Z,101073.53
2023-04-15T14:02:53.045Z,101075.91
2023-04-15T14:05:58.397Z,101080.19
2023-04-15T14:09:07.930Z,101066.75
2023-04-15T14:12:12.572Z,101079.41
2023-04-15T14:15:17.033Z,101082.47
2023-04-15T14:18:21.120Z,101098.22
2023-04-15T14:21:27.792Z,101105.72
2023-04-15T14:24:32.156Z,101101.84
2023-04-15T14:27:36.456Z,101097.13
2023-04-15T14:30:40.853Z,101098.56
2023-04-15T14:33:46.274Z,101116.25
2023-04-15T14:36:53.450Z,101125.00
2023-04-15T14:39:57.830Z,101117.88
2023-04-15T14:43:02.585Z,101127.16
2023-04-15T14:46:08.494Z,101127.59
2023-04-15T14:49:13.392Z,101126.03
2023-04-15T14:52:17.847Z,101129.34
2023-04-15T14:55:22.088Z,101138.81
2023-04-15T14:58:26.052Z,101146.06
2023-04-15T15:01:30.756Z,101157.34
2023-04-15T15:04:36.150Z,101150.03
2023-04-15T15:07:41.247Z,101143.50
2023-04-15T15:10:49.063Z,101147.31
2023-04-15T15:13:54.169Z,101156.13
2023-04-15T15:16:58.407Z,101154.97
2023-04-15T15:20:03.577Z,101162.47
2023-04-15T15:23:08.261Z,101146.28
2023-04-15T15:26:12.974Z,101151.56
2023-04-15T15:29:17.440Z,101150.56
2023-04-15T15:32:21.669Z,101164.56
2023-04-15T15:35:26.154Z,101173.34
2023-04-15T15:38:30.569Z,101179.97
2023-04-15T15:41:35.044Z,101183.97
2023-04-15T15:44:39.710Z,101190.41
2023-04-15T15:47:44.170Z,101191.13
2023-04-15T15:50:48.781Z,101183.84
2023-04-15T15:53:53.323Z,101184.00
2023-04-15T15:56:58.008Z,101206.81
2023-04-15T16:03:11.396Z,101205.59
2023-04-15T16:06:16.613Z,101210.09
2023-04-15T16:09:21.024Z,101212.97
2023-04-15T16:12:25.421Z,101200.88
2023-04-15T16:15:29.887Z,101217.78
2023-04-15T16:18:35.262Z,101222.50
2023-04-15T16:21:39.844Z,101227.94
2023-04-15T16:24:44.233Z,101235.91
2023-04-15T16:28:00.912Z,101252.75
2023-04-15T16:31:07.980Z,101248.31
2023-04-15T16:34:12.304Z,101250.19
2023-04-15T16:37:16.665Z,101253.97
2023-04-15T16:40:20.965Z,101262.66
2023-04-15T16:43:26.078Z,101262.72
2023-04-15T16:46:30.903Z,101257.00
2023-04-15T16:49:35.691Z,101267.16
2023-04-15T16:52:40.207Z,101276.16
2023-04-15T16:55:44.754Z,101273.03
2023-04-15T16:58:49.253Z,101287.28
2023-04-15T17:01:55.186Z,101285.59
2023-04-15T17:04:59.398Z,101299.53
2023-04-15T17:08:04.640Z,101295.25
2023-04-15T17:11:09.301Z,101307.56
2023-04-15T17:14:13.450Z,101306.66
2023-04-15T17:17:17.772Z,101313.47
2023-04-15T17:20:22.000Z,101309.97
2023-04-15T17:23:27.197Z,101310.53
2023-04-15T17:26:31.931Z,101309.94
2023-04-15T17:29:36.525Z,101309.44
2023-04-15T17:32:41.046Z,101305.84
2023-04-15T17:35:45.720Z,101304.53
2023-04-15T17:38:50.119Z,101322.56
2023-04-15T17:41:54.643Z,101325.19
2023-04-15T17:44:59.044Z,101326.06
2023-04-15T17:48:03.622Z,101335.75
2023-04-15T17:51:08.457Z,101334.09
2023-04-15T17:54:12.383Z,101336.09
2023-04-15T17:57:16.798Z,101348.06
2023-04-15T18:00:21.412Z,101351.06
2023-04-15T18:03:26.882Z,101352.28
2023-04-15T18:06:31.833Z,101355.19
2023-04-15T18:09:36.649Z,101366.97
2023-04-15T18:12:40.780Z,101369.16
2023-04-15T18:15:46.906Z,101374.81
2023-04-15T18:18:52.344Z,101377.59
2023-04-15T18:21:56.870Z,101393.34
2023-04-15T18:25:04.245Z,101393.63
2023-04-15T18:28:10.036Z,101392.84
2023-04-15T18:31:14.444Z,101402.44
2023-04-15T18:34:18.745Z,101417.28
2023-04-15T18:37:23.190Z,101421.88
2023-04-15T18:40:27.510Z,101428.94
2023-04-15T18:43:32.434Z,101425.59
2023-04-15T18:46:36.557Z,101439.75
2023-04-15T18:49:41.485Z,101443.28
2023-04-15T18:52:46.408Z,101452.38
2023-04-15T18:55:50.813Z,101456.03
2023-04-15T18:59:19.377Z,101459.84
2023-04-15T19:02:20.214Z,101455.63
2023-04-15T19:05:25.102Z,101468.41
2023-04-15T19:08:30.673Z,101467.94
2023-04-15T19:11:34.997Z,101471.13
2023-04-15T19:14:39.488Z,101472.38
2023-04-15T19:17:43.610Z,101474.34
2023-04-15T19:20:50.218Z,101479.88
2023-04-15T19:23:57.252Z,101492.22
2023-04-15T19:27:02.179Z,101502.88
2023-04-15T19:30:08.193Z,101493.28
2023-04-15T19:33:12.781Z,101501.16
2023-04-15T19:36:18.189Z,101497.75
2023-04-15T19:39:23.467Z,101513.50
2023-04-15T19:42:27.694Z,101519.69
2023-04-15T19:45:32.114Z,101525.94
2023-04-15T19:48:36.833Z,101529.44
2023-04-15T19:51:42.141Z,101531.28
2023-04-15T19:54:46.679Z,101535.50
2023-04-15T19:57:51.193Z,101550.44
2023-04-15T20:00:56.705Z,101559.22
2023-04-15T20:04:03.430Z,101560.16
2023-04-15T20:07:08.012Z,101564.47
2023-04-15T20:10:13.215Z,101568.91
2023-04-15T20:13:17.571Z,101574.16
2023-04-15T20:16:22.066Z,101573.38
2023-04-15T20:19:26.975Z,101573.47
2023-04-15T20:22:32.988Z,101584.94
2023-04-15T20:25:37.511Z,101581.47
2023-04-15T20:28:41.853Z,101584.19
2023-04-15T20:31:46.377Z,101583.44
2023-04-15T20:34:51.135Z,101576.41
2023-04-15T20:37:55.487Z,101580.03
2023-04-15T20:40:59.735Z,101587.34
2023-04-15T20:44:04.105Z,101576.91
2023-04-15T20:47:08.603Z,101575.25
2023-04-15T20:50:13.328Z,101579.84
2023-04-15T20:53:17.794Z,101586.97
2023-04-15T20:56:21.973Z,101585.34
2023-04-15T20:59:27.306Z,101578.50
2023-04-15T21:02:31.788Z,101594.28
2023-04-15T21:05:36.309Z,101585.53
2023-04-15T21:08:40.845Z,101590.06
2023-04-15T21:14:56.768Z,101591.16
2023-04-15T21:18:01.291Z,101593.03
2023-04-15T21:21:06.589Z,101589.47
2023-04-15T21:24:10.893Z,101592.25
2023-04-15T21:27:15.127Z,101595.84
2023-04-15T21:30:19.557Z,101593.31
2023-04-15T21:33:24.072Z,101601.22
2023-04-15T21:36:28.641Z,101606.56
2023-04-15T21:39:32.922Z,101613.47
2023-04-15T21:42:37.479Z,101610.84
2023-04-15T21:45:43.555Z,101617.88
2023-04-15T21:49:08.190Z,101612.56
2023-04-15T21:52:12.679Z,101623.03
2023-04-15T21:55:17.179Z,101625.66
2023-04-15T21:58:21.619Z,101623.09
2023-04-15T22:01:26.833Z,101628.38
2023-04-15T22:04:31.223Z,101621.44
2023-04-15T22:07:36.321Z,101624.84
2023-04-15T22:10:40.854Z,101626.69
2023-04-15T22:13:45.067Z,101631.09
2023-04-15T22:16:49.368Z,101634.63
2023-04-15T22:19:54.333Z,101635.53
2023-04-15T22:22:58.633Z,101640.84
2023-04-15T22:26:03.081Z,101640.84
2023-04-15T22:29:07.763Z,101644.31
2023-04-15T22:32:12.402Z,101642.59
2023-04-15T22:35:17.069Z,101649.66
2023-04-15T22:38:21.559Z,101648.78
2023-04-15T22:41:25.593Z,101653.16
2023-04-15T22:44:30.122Z,101658.41
2023-04-15T22:47:34.947Z,101659.22
2023-04-15T22:50:39.246Z,101656.63
2023-04-15T22:53:43.174Z,101664.56
2023-04-15T22:56:47.208Z,101663.03
2023-04-15T22:59:51.569Z,101670.03
2023-04-15T23:02:56.205Z,101668.34
2023-04-15T23:06:01.934Z,101672.69
2023-04-15T23:09:06.483Z,101678.03
2023-04-15T23:12:10.842Z,101684.88
2023-04-15T23:15:15.850Z,101683.09
2023-04-15T23:18:20.416Z,101697.84
2023-04-15T23:21:26.123Z,101695.25
2023-04-15T23:24:30.807Z,101679.53
2023-04-15T23:27:35.830Z,101677.84
2023-04-15T23:30:40.050Z,101682.22
2023-04-15T23:33:44.263Z,101684.03
2023-04-15T23:36:48.601Z,101676.22
2023-04-15T23:39:52.969Z,101681.63
2023-04-15T23:42:57.562Z,101685.16
2023-04-15T23:46:02.144Z,101673.94
2023-04-15T23:49:06.383Z,101684.50
2023-04-15T23:52:10.829Z,101690.56
2023-04-15T23:55:15.401Z,101699.38
2023-04-15T23:58:19.601Z,101695.97
